^^

Meteo Aereoporti Centro-Italia

 

 
LIRZ - Perugia S.Egidio (208 m.)
Dati ricevuti: 30/11/2021 00:20
Qualche nuvola
Qualche nuvola
 Vento da WNW
Vento: WNW 6 km/h
TEMPERATURA: 2°C
P.to di Rugiada: 2°C
Umidità: 100%
Pressione: 1010 hPa
Nuvole: Qualche nuvola
Visibilità: 10 km
Dettagli Nuvole: Qualche nuvola 3962 m
2021/11/29 23:20 LIRZ 292320Z AUTO 30003KT 270V340 9999 FEW130/// 02/02 Q1010
 
LIPY - Ancona Falconara (12 m.)
Dati ricevuti: 30/11/2021 00:20

 Vento da N
Vento: N 28 km/h
TEMPERATURA: 9°C
Raffreddamento da Vento: 6°C
P.to di Rugiada: -4°C
Umidità: 40%
Pressione: 1009 hPa
Visibilità: 10 km
2021/11/29 23:20 LIPY 292320Z AUTO 36015KT 9999 ///////// 09/M04 Q1009
 
LIPR - Rimini Miramare (12 m.)
Dati ricevuti: 30/11/2021 00:20
Pioggia debole, Molto Nuvoloso
Pioggia debole, Molto Nuvoloso
 Vento da W
Vento: W 13 km/h
TEMPERATURA: 4°C
Raffreddamento da Vento: 1°C
P.to di Rugiada: 0°C
Umidità: 75%
Pressione: 1011 hPa
Condizioni generali: Pioggia debole
Nuvole: Molto nuvoloso
Visibilità: 10 km
Dettagli Nuvole: Poco nuvoloso 2012 m
Molto nuvoloso 3048 m
2021/11/29 23:20 LIPR 292320Z AUTO 28007KT 9999 -RA SCT066/// BKN100/// 04/00 Q1011
 
LIRF - Roma Fiumicino (2 m.)
Dati ricevuti: 30/11/2021 00:20
Sereno
Sereno
 Vento da WNW
Vento: WNW 22 km/h
TEMPERATURA: 6°C
Raffreddamento da Vento: 2°C
P.to di Rugiada: 0°C
Umidità: 66%
Pressione: 1009 hPa
Condizioni generali: Sereno
Visibilità: oltre 10 km
2021/11/29 23:20 LIRF 292320Z 30012KT CAVOK 06/00 Q1009 NOSIG
 
LIRA - Roma Ciampino (129 m.)
Dati ricevuti: 30/11/2021 00:20
Sereno
Sereno
 Vento da N
Vento: N 9 km/h
TEMPERATURA: 3°C
Raffreddamento da Vento: 0°C
P.to di Rugiada: 1°C
Umidità: 87%
Pressione: 1008 hPa
Condizioni generali: Sereno
Visibilità: oltre 10 km
2021/11/29 23:20 LIRA 292320Z 36005KT CAVOK 03/01 Q1008
 
LIRU - Roma Urbe (17 m.)
Dati ricevuti: 29/11/2021 15:50
Dati non aggiornati
Pioggia debole, Molto Nuvoloso
Pioggia debole, Molto Nuvoloso
 Vento da N
Vento: N 15 km/h
TEMPERATURA: 7°C
Raffreddamento da Vento: 4°C
P.to di Rugiada: 4°C
Umidità: 81%
Pressione: 999 hPa
Condizioni generali: Pioggia debole
Nuvole: Molto nuvoloso
Visibilità: 10 km
Dettagli Nuvole: Poco nuvoloso 610 m
Molto nuvoloso 1372 m
2021/11/29 14:50 LIRU 291450Z 35008KT 320V020 9999 -RA SCT020 BKN045 07/04 Q0999
 
LIVF - Frontone (570 m.)
Dati ricevuti: 29/11/2021 18:55
Dati non aggiornati
Nevischio, Nebbia
Nevischio, Nebbia
 Vento da WNW
Vento: WNW 13 km/h
TEMPERATURA: 1°C
Raffreddamento da Vento: -3°C
P.to di Rugiada: 1°C
Umidità: 100%
Pressione: 1002 hPa
Condizioni generali: Nevischio, Nebbia
Visibilità: 0 km
2021/11/29 17:55 LIVF 291755Z 29007KT 0200 -SN FG VV/// 01/01 Q1002 RMK MON INVIS VAL INVIS VIS MIN 0200
 
LIRQ - Firenze Peretola (40 m.)
Dati ricevuti: 30/11/2021 00:20
Sereno
Sereno
 Vento da ENE
Vento: ENE 6 km/h
TEMPERATURA: 0°C
P.to di Rugiada: -1°C
Umidità: 93%
Pressione: 1011 hPa
Condizioni generali: Sereno
Visibilità: oltre 10 km
2021/11/29 23:20 LIRQ 292320Z 06003KT 340V130 CAVOK M00/M01 Q1011
 
LIBP - Pescara (10 m.)
Dati ricevuti: 30/11/2021 00:20
Pioggia debole, Coperto
Pioggia debole, Coperto
 Vento da NNW
Vento: NNW 20 km/h
TEMPERATURA: 7°C
Raffreddamento da Vento: 4°C
P.to di Rugiada: 2°C
Umidità: 71%
Pressione: 1008 hPa
Condizioni generali: Pioggia debole
Nuvole: Coperto
Visibilità: 10 km
Dettagli Nuvole: Coperto 1311 m
2021/11/29 23:20 LIBP 292320Z AUTO 34011KT 290V020 9999 -RA OVC043/// 07/02 Q1008
 
LIRV - Viterbo (300 m.)
Dati ricevuti: 29/11/2021 18:55
Dati non aggiornati
Qualche nuvola
Qualche nuvola
 Vento da N
Vento: N 20 km/h
TEMPERATURA: 5°C
Raffreddamento da Vento: 1°C
P.to di Rugiada: 0°C
Umidità: 70%
Pressione: 1001 hPa
Nuvole: Qualche nuvola
Visibilità: 10 km
Dettagli Nuvole: Qualche nuvola 762 m
2021/11/29 17:55 LIRV 291755Z 01011KT 9999 FEW025 05/M00 Q1001
 
LIQN - Rieti (389 m.)
Dati ricevuti: 29/11/2021 16:50
Dati non aggiornati
Pioggia debole, Molto Nuvoloso
Pioggia debole, Molto Nuvoloso
 Vento da WNW
Vento: WNW 15 km/h
TEMPERATURA: 3°C
Raffreddamento da Vento: -1°C
P.to di Rugiada: 2°C
Umidità: 93%
Pressione: 999 hPa
Condizioni generali: Pioggia debole
Nuvole: Molto nuvoloso
Visibilità: 5 km
Dettagli Nuvole: Molto nuvoloso 305 m
2021/11/29 15:50 LIQN 291550Z 29008KT 5000 -RA BKN010 03/02 Q0999
 
LIRG - Guidonia -RM- (88 m.)
Dati ricevuti: 29/11/2021 18:55
Dati non aggiornati
Qualche nuvola
Qualche nuvola
 Vento da WNW
Vento: WNW 11 km/h
TEMPERATURA: 4°C
Raffreddamento da Vento: 1°C
P.to di Rugiada: 3°C
Umidità: 93%
Pressione: 1002 hPa
Nuvole: Qualche nuvola
Visibilità: 10 km
Dettagli Nuvole: Qualche nuvola 914 m
2021/11/29 17:55 LIRG 291755Z 29006KT 9999 FEW030 04/03 Q1002
 
LIRK - Terminillo -RI-(1874 m.)
Dati ricevuti: 30/11/2021 00:19

 Vento da E
Vento: E 44 km/h, Raffica: 70 km/h
TEMPERATURA: -6°C
Raffreddamento da Vento: -16°C
P.to di Rugiada: -8°C
Umidità: 86%
Pressione: 1002 hPa
2021/11/29 23:19 LIRK 292319Z AUTO 09024G38KT 020V140 //// M06/M08 Q1002
 
LIPK - Forlì (27 m.)
Dati ricevuti: 29/11/2021 22:50
Dati non aggiornati
Qualche nuvola
Qualche nuvola
 Vento da calm
Vento: Calma
TEMPERATURA: 0°C
P.to di Rugiada: -4°C
Umidità: 75%
Pressione: 1009 hPa
Nuvole: Qualche nuvola
Visibilità: 10 km
Dettagli Nuvole: Qualche nuvola 914 m
2021/11/29 21:50 LIPK 292150Z 00000KT 9999 FEW030 00/M04 Q1009
 
LIRS - Grosseto (5 m.)
Dati ricevuti: 29/11/2021 23:55
Sereno
Sereno
 Vento da N
Vento: N 4 km/h
TEMPERATURA: 4°C
P.to di Rugiada: 1°C
Umidità: 81%
Pressione: 1011 hPa
Condizioni generali: Sereno
Visibilità: oltre 10 km
2021/11/29 22:55 LIRS 292255Z 01002KT CAVOK 04/01 Q1011
 
LIRP - Pisa S.Giusto (2 m.)
Dati ricevuti: 30/11/2021 00:15
Sereno
Sereno
 Vento da E
Vento: E 9 km/h
TEMPERATURA: 0°C
Raffreddamento da Vento: -3°C
P.to di Rugiada: -1°C
Umidità: 93%
Pressione: 1011 hPa
Condizioni generali: Sereno
Visibilità: oltre 10 km
2021/11/29 23:15 LIRP 292315Z 09005KT CAVOK 00/M01 Q1011 NOSIG